Time;durP1;ratioP1;P1;durP2;ratioP2;P2;SDS_P1;SDS_P2;PMS_P1;PMS_P2;Temp;Humidity;BMP_temperature;BMP_pressure;BME280_temperature;BME280_humidity;BME280_pressure;Samples;Min_cycle;Max_cycle;Signal;HPM_P1;HPM_P2
2021/08/09 05:53:42;;;;;;;4.78;2.42;;;;;;;;;;10544627;27;20377;-84
2021/08/09 05:58:43;;;;;;;4.22;2.10;;;;;;;;;;10542421;28;20066;-85
2021/08/09 06:03:48;;;;;;;4.05;1.70;;;;;;;;;;10541341;28;20123;-84
2021/08/09 06:09:18;;;;;;;2.55;1.70;;;;;;;;;;10541068;28;20039;-85
2021/08/09 06:14:20;;;;;;;3.97;1.90;;;;;;;;;;10541732;28;20021;-83
2021/08/09 06:19:35;;;;;;;4.38;2.45;;;;;;;;;;10543603;28;20521;-84
2021/08/09 06:24:55;;;;;;;3.13;1.70;;;;;;;;;;10543904;28;20028;-85
2021/08/09 06:29:59;;;;;;;;;;;;;;;;;;10542796;28;20024;-83
2021/08/09 06:35:21;;;;;;;3.83;2.10;;;;;;;;;;10540885;28;19908;-84
2021/08/09 06:40:27;;;;;;;2.90;1.90;;;;;;;;;;10565448;28;20037;-83
2021/08/09 06:45:56;;;;;;;3.47;2.00;;;;;;;;;;10546272;28;20097;-83
2021/08/09 06:51:00;;;;;;;3.88;1.85;;;;;;;;;;10537439;28;20029;-84
2021/08/09 06:56:33;;;;;;;3.47;1.77;;;;;;;;;;10543258;28;20028;-85
2021/08/09 07:01:49;;;;;;;2.17;1.27;;;;;;;;;;10544203;28;20039;-84
2021/08/09 07:07:06;;;;;;;4.28;1.75;;;;;;;;;;10523350;28;20032;-87
2021/08/09 07:12:11;;;;;;;5.85;1.80;;;;;;;;;;10535160;28;20390;-85
2021/08/09 07:23:16;;;;;;;4.93;1.80;;;;;;;;;;10517994;28;20021;-88
2021/08/09 07:45:47;;;;;;;3.33;2.08;;;;;;;;;;10538141;28;20380;-86
2021/08/09 07:51:07;;;;;;;2.67;1.80;;;;;;;;;;10525067;28;20031;-87
2021/08/09 08:02:17;;;;;;;4.22;2.03;;;;;;;;;;10511783;28;20116;-86
2021/08/09 08:13:47;;;;;;;5.50;2.22;;;;;;;;;;10467828;28;20034;-84
2021/08/09 08:24:38;;;;;;;4.22;2.20;;;;;;;;;;10468365;28;20498;-85
2021/08/09 08:30:00;;;;;;;4.47;1.80;;;;;;;;;;10473284;28;20144;-84
2021/08/09 11:04:06;;;;;;;7.45;4.45;;;;;;;;;;10429361;28;20041;-84
2021/08/09 11:26:38;;;;;;;4.55;1.70;;;;;;;;;;10426078;28;20093;-82
2021/08/09 11:32:09;;;;;;;4.78;1.80;;;;;;;;;;10390945;28;20037;-83
2021/08/09 11:37:40;;;;;;;4.07;2.20;;;;;;;;;;10408650;28;20438;-82
2021/08/09 11:42:48;;;;;;;3.08;1.58;;;;;;;;;;10422883;28;20033;-82
2021/08/09 11:47:49;;;;;;;4.80;1.85;;;;;;;;;;10408333;28;20518;-83
2021/08/09 11:52:54;;;;;;;5.25;2.30;;;;;;;;;;10423853;28;20129;-82
2021/08/09 11:58:26;;;;;;;3.22;2.85;;;;;;;;;;10424818;28;20049;-82
2021/08/09 12:09:41;;;;;;;3.28;1.50;;;;;;;;;;10425453;28;20022;-84
2021/08/09 12:15:03;;;;;;;4.43;1.67;;;;;;;;;;10414297;28;20087;-84
2021/08/09 12:20:39;;;;;;;5.60;1.73;;;;;;;;;;10427404;28;20033;-84
2021/08/09 12:31:35;;;;;;;5.05;1.52;;;;;;;;;;10427875;28;20510;-82
2021/08/09 12:36:50;;;;;;;2.67;1.35;;;;;;;;;;10411964;28;20034;-83
2021/08/09 12:42:12;;;;;;;3.97;1.60;;;;;;;;;;10396895;28;20041;-83
2021/08/09 12:47:38;;;;;;;2.47;1.20;;;;;;;;;;10412785;28;20082;-83
2021/08/09 12:53:03;;;;;;;4.30;1.23;;;;;;;;;;10430727;28;20029;-83
2021/08/09 13:21:11;;;;;;;3.08;1.58;;;;;;;;;;10435167;28;20121;-84
2021/08/09 13:26:13;;;;;;;5.22;1.30;;;;;;;;;;10423740;28;20036;-83
2021/08/09 13:31:40;;;;;;;6.45;2.83;;;;;;;;;;10411617;28;20056;-83
2021/08/09 13:37:11;;;;;;;3.03;1.40;;;;;;;;;;10297334;28;20031;-83
2021/08/09 13:59:16;;;;;;;4.57;1.50;;;;;;;;;;10421674;28;20029;-86
2021/08/09 14:21:12;;;;;;;2.95;1.13;;;;;;;;;;10418359;28;20065;-86
2021/08/09 14:26:41;;;;;;;3.15;1.30;;;;;;;;;;10412603;28;20475;-86
2021/08/09 14:31:44;;;;;;;2.63;1.45;;;;;;;;;;10412684;28;20037;-85
2021/08/09 15:05:34;;;;;;;3.00;1.30;;;;;;;;;;10340713;28;20042;-86
2021/08/09 15:11:29;;;;;;;5.18;2.88;;;;;;;;;;10306135;28;20035;-86
2021/08/09 16:12:48;;;;;;;2.97;1.73;;;;;;;;;;10419411;28;20037;-87
2021/08/09 16:18:24;;;;;;;3.97;1.90;;;;;;;;;;10403449;28;20553;-88
2021/08/09 16:24:12;;;;;;;3.95;1.83;;;;;;;;;;10426532;28;20037;-87
2021/08/09 16:29:28;;;;;;;5.30;2.00;;;;;;;;;;10426903;28;20038;-88
2021/08/09 16:34:29;;;;;;;4.38;1.80;;;;;;;;;;10411390;28;20036;-87
2021/08/09 16:39:30;;;;;;;5.15;2.90;;;;;;;;;;10430755;28;20456;-86
2021/08/09 16:44:31;;;;;;;6.80;2.67;;;;;;;;;;10412084;28;20438;-86
2021/08/09 16:49:31;;;;;;;3.55;1.70;;;;;;;;;;10409190;28;20060;-87
2021/08/09 16:54:32;;;;;;;4.05;1.73;;;;;;;;;;10403989;28;20044;-87
2021/08/09 16:59:34;;;;;;;3.80;2.03;;;;;;;;;;10402675;28;20029;-88
2021/08/09 17:04:35;;;;;;;3.30;1.83;;;;;;;;;;10403806;28;20128;-87
2021/08/09 17:09:36;;;;;;;4.75;2.50;;;;;;;;;;10402230;28;20491;-87
2021/08/09 17:14:37;;;;;;;4.05;1.90;;;;;;;;;;10419114;28;20065;-87
2021/08/09 17:19:38;;;;;;;4.32;2.08;;;;;;;;;;10401938;28;20103;-88
2021/08/09 17:24:39;;;;;;;3.90;1.73;;;;;;;;;;10418936;28;20026;-87
2021/08/09 17:29:40;;;;;;;2.97;1.80;;;;;;;;;;10401196;28;20033;-87
2021/08/09 17:34:41;;;;;;;3.30;1.80;;;;;;;;;;10403790;28;20044;-86
2021/08/09 17:39:42;;;;;;;4.00;1.80;;;;;;;;;;10402848;28;20037;-86
2021/08/09 17:44:43;;;;;;;3.45;2.10;;;;;;;;;;10409265;28;20080;-86
2021/08/09 17:49:44;;;;;;;3.28;2.30;;;;;;;;;;10401127;28;20034;-86
2021/08/09 17:54:45;;;;;;;3.92;2.22;;;;;;;;;;10400905;28;20025;-86
2021/08/09 17:59:46;;;;;;;4.65;2.00;;;;;;;;;;10400736;28;20057;-86
2021/08/09 18:04:47;;;;;;;3.42;1.90;;;;;;;;;;10400431;28;20471;-86
2021/08/09 18:09:49;;;;;;;3.47;1.60;;;;;;;;;;10402539;28;20059;-86
2021/08/09 18:14:50;;;;;;;2.92;1.52;;;;;;;;;;10439255;28;20060;-86
2021/08/09 18:19:51;;;;;;;2.50;1.35;;;;;;;;;;10444862;28;20037;-85
2021/08/09 18:24:52;;;;;;;2.63;1.40;;;;;;;;;;10445015;28;20048;-86
2021/08/09 18:29:53;;;;;;;1.75;1.23;;;;;;;;;;10403334;28;20064;-86
2021/08/09 18:34:54;;;;;;;3.13;1.38;;;;;;;;;;10405420;28;20052;-86
2021/08/09 18:39:55;;;;;;;1.83;1.17;;;;;;;;;;10404622;28;20495;-85
2021/08/09 18:44:56;;;;;;;1.95;1.23;;;;;;;;;;10403088;28;20025;-86
2021/08/09 18:49:58;;;;;;;1.83;1.25;;;;;;;;;;10402426;28;20061;-87
2021/08/09 18:54:59;;;;;;;2.30;1.40;;;;;;;;;;10402113;28;20033;-87
2021/08/09 18:59:59;;;;;;;4.07;1.30;;;;;;;;;;10406391;28;20064;-87
2021/08/09 19:05:00;;;;;;;2.17;1.50;;;;;;;;;;10410414;28;20484;-87
2021/08/09 19:10:01;;;;;;;2.72;1.10;;;;;;;;;;10409334;28;20033;-87
2021/08/09 19:15:06;;;;;;;2.35;1.42;;;;;;;;;;10407861;28;20156;-87
2021/08/09 19:20:19;;;;;;;1.83;1.40;;;;;;;;;;10409793;28;20041;-87
2021/08/09 19:25:20;;;;;;;2.25;1.50;;;;;;;;;;10408189;28;20080;-87
2021/08/09 19:30:21;;;;;;;2.22;1.23;;;;;;;;;;10408641;28;20030;-87
2021/08/09 19:35:23;;;;;;;2.38;1.50;;;;;;;;;;10407462;28;20137;-85
2021/08/09 19:40:24;;;;;;;4.15;1.50;;;;;;;;;;10407742;28;20041;-86
2021/08/09 19:45:25;;;;;;;2.65;1.50;;;;;;;;;;10405986;28;20029;-85
2021/08/09 19:50:26;;;;;;;2.45;1.45;;;;;;;;;;10406868;28;20033;-86
2021/08/09 19:55:28;;;;;;;2.85;1.67;;;;;;;;;;10406302;28;20034;-85
2021/08/09 20:00:29;;;;;;;3.45;2.08;;;;;;;;;;10406047;28;20087;-86
2021/08/09 20:05:30;;;;;;;3.75;1.85;;;;;;;;;;10404793;28;20043;-85
2021/08/09 20:10:31;;;;;;;3.83;1.35;;;;;;;;;;10406049;28;20065;-85
2021/08/09 20:15:32;;;;;;;2.47;1.75;;;;;;;;;;10407212;28;20509;-85
